Flight Track Log - Related Links

Times and Time Zones

All times are in EDT time to prevent confusion due to time zone crossing. See the ASQ5958 flight status page for this flight to view local times or setup timezone preferences in your user account.


Time Position Orientation Groundspeed Altitude Reporting Facility
EDT Latitude Longitude Course Direction KTS MPH feet Rate Location/Type
Sun 09:55:11 PM 39.8000 -104.6333 180° South 189 217 7,100  Level Denver TRACON
Sun 09:56:05 PM 39.7500 -104.6333 180° South 230 265 8,400 1,672 Climbing Denver TRACON
Sun 09:57:00 PM 39.7211 -104.3522 159° South  Level FlightAware Approximate
Sun 09:57:13 PM 39.6678 -104.6300 178° South 250 288 10,500  Level Denver Center
Sun 09:58:00 PM 39.6277 -104.4028 201° Southwest  Level FlightAware Approximate
Sun 09:58:26 PM 39.5900 -104.6178 173° South 276 318 12,300  Level Denver Center
Sun 09:59:00 PM 39.5380 -104.4663 212° Southwest  Level FlightAware Approximate
Sun 09:59:29 PM 39.4847 -104.6011 173° South 312 359 14,200  Level Denver Center
Sun 10:00:00 PM 39.4415 -104.5000 180° South  Level FlightAware Approximate
Sun 10:00:31 PM 39.3850 -104.5878 174° South 336 387 15,700  Level Denver Center
Sun 10:01:32 PM 39.2861 -104.5736 174° South 357 411 17,000 1,171 Climbing Denver Center
Sun 10:02:34 PM 39.1839 -104.5517 171° South 370 426 18,100 1,161 Climbing Denver Center
Sun 10:03:36 PM 39.0831 -104.5092 162° South 365 420 19,400 1,258 Climbing Denver Center
Sun 10:04:38 PM 38.9861 -104.4333 149° Southeast 384 442 20,700 1,306 Climbing Denver Center
Sun 10:05:40 PM 38.8800 -104.3514 149° Southeast 393 452 22,100 1,258 Climbing Denver Center
Sun 10:06:42 PM 38.7883 -104.2794 149° Southeast 400 460 23,300 1,512 Climbing Denver Center
Sun 10:07:43 PM 38.6983 -104.2092 149° Southeast 397 457 25,200 2,000 Climbing Denver Center
Sun 10:08:45 PM 38.6000 -104.1364 150° Southeast 372 428 27,400 1,694 Climbing Denver Center
Sun 10:09:47 PM 38.5186 -104.0742 149° Southeast 358 412 28,700 774 Climbing Denver Center
Sun 10:10:49 PM 38.4175 -103.9989 150° Southeast 379 436 29,000 145 Climbing Denver Center
Sun 10:11:51 PM 38.3233 -103.9258 149° Southeast 410 472 29,000  Level Denver Center
Sun 10:12:52 PM 38.2058 -103.8383 150° Southeast 434 499 29,000  Level Denver Center
Sun 10:13:54 PM 38.1014 -103.7589 149° Southeast 450 518 29,000  Level Denver Center
Sun 10:14:56 PM 37.9936 -103.6781 149° Southeast 465 535 29,000  Level Denver Center
Sun 10:15:58 PM 37.8686 -103.5842 149° Southeast 465 535 29,000  Level Denver Center
Sun 10:16:59 PM 37.7614 -103.5039 149° Southeast 464 534 29,000  Level Denver Center
Sun 10:18:01 PM 37.6344 -103.4111 150° Southeast 467 537 29,000  Level Denver Center
Sun 10:19:03 PM 37.5267 -103.3319 150° Southeast 466 536 29,000  Level Denver Center
Sun 10:20:04 PM 37.4200 -103.2525 149° Southeast 464 534 29,000  Level Denver Center
Sun 10:21:06 PM 37.2947 -103.1617 150° Southeast 464 534 29,000  Level Denver Center
Sun 10:22:08 PM 37.1894 -103.0842 150° Southeast 460 529 29,000  Level Denver Center
Sun 10:23:09 PM 37.0644 -102.9944 150° Southeast 461 531 29,000  Level Denver Center
Sun 10:24:19 PM 36.9425 -102.9047 150° Southeast 458 527 29,000  Level Albuquerque Center
Sun 10:25:20 PM 36.8353 -102.8275 150° Southeast 462 532 29,000  Level Albuquerque Center
Sun 10:26:22 PM 36.7108 -102.7389 150° Southeast 461 531 29,000  Level Albuquerque Center
Sun 10:27:23 PM 36.6156 -102.6700 150° Southeast 462 532 29,000 -492 Level Albuquerque Center
Sun 10:28:24 PM 36.4844 -102.5750 150° Southeast 457 526 28,000 -1,463 Descending Albuquerque Center
Sun 10:29:26 PM 36.3703 -102.4936 150° Southeast 468 539 26,000 -1,951 Descending Albuquerque Center
Sun 10:30:27 PM 36.2575 -102.4139 150° Southeast 469 540 24,000 -1,967 Descending Albuquerque Center
Sun 10:31:28 PM 36.1472 -102.3356 150° Southeast 461 531 22,000 -1,967 Descending Albuquerque Center
Sun 10:32:29 PM 36.0389 -102.2597 150° Southeast 452 520 20,000 -1,902 Descending Albuquerque Center
Sun 10:33:31 PM 35.9350 -102.1861 150° Southeast 439 505 18,100 -1,854 Descending Albuquerque Center
Sun 10:34:32 PM 35.8397 -102.1108 147° Southeast 415 478 16,200 -1,918 Descending Albuquerque Center
Sun 10:35:33 PM 35.7503 -102.0278 143° Southeast 406 467 14,200 -1,967 Descending Albuquerque Center
Sun 10:36:34 PM 35.6725 -101.9550 143° Southeast 363 418 12,200 -1,707 Descending Albuquerque Center
Sun 10:37:36 PM 35.5986 -101.8858 143° Southeast 340 391 10,700 -1,512 Descending Albuquerque Center
Sun 10:38:37 PM 35.5242 -101.8125 141° Southeast 299 344 9,100 -1,475 Descending Albuquerque Center
Sun 10:39:38 PM 35.4653 -101.7528 140° Southeast 284 327 7,700 -1,230 Descending Albuquerque Center
Sun 10:40:39 PM 35.4069 -101.7006 144° Southeast 265 305 6,600 -1,122 Descending Albuquerque Center
Sun 10:41:41 PM 35.3439 -101.6697 158° South 253 291 5,400 -829 Descending Albuquerque Center
Sun 10:42:42 PM 35.2944 -101.6533 165° South 205 236 4,900 -541 Descending Albuquerque Center
Sun 10:43:43 PM 35.2608 -101.6656 197° South 156 180 4,300 -590 Descending Albuquerque Center
Sun 10:44:44 PM 35.2331 -101.6964 222° Southwest 143 165 3,700 -590 Descending Albuquerque Center
Sun 10:46:00 PM 35.2167 -101.7000 219° Southwest  Level FlightAware Approximate

Login

Don't have an account? Register now (free) for customized features, flight alerts, and more!